createdAt,value
2023-08-20T00:01:45.207Z,5.57
2023-08-20T00:04:16.240Z,5.50
2023-08-20T00:06:47.487Z,5.43
2023-08-20T00:09:16.734Z,6.28
2023-08-20T00:11:45.820Z,5.90
2023-08-20T00:14:19.349Z,6.68
2023-08-20T00:16:49.186Z,5.90
2023-08-20T00:19:18.889Z,6.05
2023-08-20T00:21:49.462Z,5.85
2023-08-20T00:24:19.117Z,5.75
2023-08-20T00:26:48.815Z,6.72
2023-08-20T00:29:18.009Z,5.55
2023-08-20T00:31:47.561Z,6.07
2023-08-20T00:34:17.530Z,5.47
2023-08-20T00:36:48.078Z,5.85
2023-08-20T00:39:17.388Z,6.47
2023-08-20T00:41:46.705Z,6.53
2023-08-20T00:44:16.000Z,6.00
2023-08-20T00:46:45.193Z,6.53
2023-08-20T00:49:15.532Z,6.72
2023-08-20T00:51:45.130Z,6.35
2023-08-20T00:54:16.109Z,6.10
2023-08-20T00:56:46.286Z,5.65
2023-08-20T00:59:15.674Z,6.25
2023-08-20T01:01:45.046Z,6.05
2023-08-20T01:04:14.265Z,6.63
2023-08-20T01:06:53.051Z,6.70
2023-08-20T01:09:32.179Z,6.45
2023-08-20T01:12:04.677Z,6.70
2023-08-20T01:14:33.812Z,6.53
2023-08-20T01:17:03.042Z,6.38
2023-08-20T01:19:32.459Z,5.75
2023-08-20T01:22:20.169Z,6.97
2023-08-20T01:25:05.938Z,6.25
2023-08-20T01:27:46.268Z,5.90
2023-08-20T01:30:17.808Z,6.00
2023-08-20T01:32:48.346Z,5.82
2023-08-20T01:35:19.538Z,6.75
2023-08-20T01:37:48.684Z,5.80
2023-08-20T01:40:17.985Z,6.30
2023-08-20T01:42:47.097Z,6.03
2023-08-20T01:45:19.390Z,5.88
2023-08-20T01:47:50.794Z,6.65
2023-08-20T01:50:20.151Z,6.45
2023-08-20T01:52:49.370Z,6.85
2023-08-20T01:55:18.717Z,6.25
2023-08-20T01:57:47.788Z,6.05
2023-08-20T02:00:18.542Z,6.95
2023-08-20T02:02:47.617Z,6.93
2023-08-20T02:05:16.999Z,7.75
2023-08-20T02:07:46.071Z,8.52
2023-08-20T02:10:15.342Z,7.85
2023-08-20T02:12:45.517Z,7.72
2023-08-20T02:15:14.627Z,8.02
2023-08-20T02:17:45.176Z,7.95
2023-08-20T02:20:14.438Z,8.98
2023-08-20T02:22:43.583Z,7.90
2023-08-20T02:25:12.677Z,8.43
2023-08-20T02:27:41.753Z,11.02
2023-08-20T02:30:14.455Z,9.23
2023-08-20T02:32:44.952Z,8.07
2023-08-20T02:35:16.620Z,8.85
2023-08-20T02:37:45.752Z,8.27
2023-08-20T02:40:15.485Z,7.03
2023-08-20T02:42:44.603Z,7.13
2023-08-20T02:45:13.947Z,6.68
2023-08-20T02:47:44.398Z,7.50
2023-08-20T02:50:13.528Z,7.32
2023-08-20T02:52:43.597Z,7.40
2023-08-20T02:55:12.930Z,7.25
2023-08-20T02:57:42.138Z,7.70
2023-08-20T03:00:14.809Z,7.22
2023-08-20T03:02:45.497Z,6.93
2023-08-20T03:05:15.423Z,6.57
2023-08-20T03:07:44.814Z,7.68
2023-08-20T03:10:14.083Z,6.22
2023-08-20T03:12:43.515Z,7.00
2023-08-20T03:15:12.921Z,6.82
2023-08-20T03:17:42.158Z,8.85
2023-08-20T03:20:13.854Z,7.68
2023-08-20T03:22:43.112Z,7.78
2023-08-20T03:25:12.258Z,8.13
2023-08-20T03:27:43.383Z,8.02
2023-08-20T03:30:13.188Z,7.63
2023-08-20T03:32:42.439Z,7.63
2023-08-20T03:35:13.090Z,7.38
2023-08-20T03:37:42.649Z,6.93
2023-08-20T03:40:12.406Z,7.88
2023-08-20T03:42:41.530Z,7.70
2023-08-20T03:45:10.945Z,7.68
2023-08-20T03:47:40.169Z,8.65
2023-08-20T03:50:09.585Z,7.15
2023-08-20T03:52:40.587Z,7.78
2023-08-20T03:55:10.997Z,7.80
2023-08-20T03:57:40.230Z,7.68
2023-08-20T04:00:11.097Z,8.48
2023-08-20T04:02:48.183Z,7.95
2023-08-20T04:05:17.444Z,8.52
2023-08-20T04:07:48.076Z,8.70
2023-08-20T04:10:17.309Z,8.50
2023-08-20T04:12:46.392Z,7.30
2023-08-20T04:15:15.530Z,7.70
2023-08-20T04:17:44.660Z,9.23
2023-08-20T04:20:13.852Z,8.00
2023-08-20T04:22:43.345Z,8.07
2023-08-20T04:25:14.000Z,9.60
2023-08-20T04:27:43.260Z,9.35
2023-08-20T04:30:13.538Z,7.78
2023-08-20T04:32:42.965Z,9.07
2023-08-20T04:35:12.388Z,8.95
2023-08-20T04:37:42.981Z,9.57
2023-08-20T04:40:16.451Z,9.10
2023-08-20T04:42:47.076Z,9.30
2023-08-20T04:45:19.101Z,8.02
2023-08-20T04:47:48.860Z,8.27
2023-08-20T04:50:21.450Z,8.20
2023-08-20T04:52:51.184Z,8.87
2023-08-20T04:55:21.839Z,7.47
2023-08-20T04:57:52.106Z,7.45
2023-08-20T05:00:21.710Z,8.98
2023-08-20T05:02:57.699Z,8.60
2023-08-20T05:05:26.944Z,6.43
2023-08-20T05:07:56.023Z,8.75
2023-08-20T05:10:26.574Z,8.50
2023-08-20T05:12:55.697Z,10.25
2023-08-20T05:15:24.838Z,9.18
2023-08-20T05:17:54.012Z,7.78
2023-08-20T05:20:23.280Z,7.88
2023-08-20T05:22:52.404Z,7.63
2023-08-20T05:25:21.512Z,7.47
2023-08-20T05:27:53.821Z,8.02
2023-08-20T05:30:23.024Z,7.65
2023-08-20T05:32:52.164Z,7.18
2023-08-20T05:35:21.259Z,8.48
2023-08-20T05:37:51.801Z,9.25
2023-08-20T05:40:21.808Z,9.15
2023-08-20T05:42:52.646Z,7.40
2023-08-20T05:45:22.607Z,7.30
2023-08-20T05:47:53.400Z,7.32
2023-08-20T05:50:24.807Z,7.50
2023-08-20T05:52:54.241Z,8.05
2023-08-20T05:55:24.662Z,7.72
2023-08-20T05:57:55.676Z,7.47
2023-08-20T06:00:24.766Z,6.53
2023-08-20T06:02:53.923Z,6.35
2023-08-20T06:05:23.068Z,5.65
2023-08-20T06:07:52.153Z,4.53
2023-08-20T06:10:21.227Z,4.70
2023-08-20T06:12:50.301Z,3.65
2023-08-20T06:15:20.726Z,3.55
2023-08-20T06:17:49.816Z,3.25
2023-08-20T06:20:19.800Z,3.03
2023-08-20T06:22:49.149Z,3.10
2023-08-20T06:25:18.639Z,2.78
2023-08-20T06:27:47.752Z,2.67
2023-08-20T06:30:16.952Z,2.78
2023-08-20T06:32:47.501Z,3.05
2023-08-20T06:35:16.636Z,3.08
2023-08-20T06:37:45.752Z,3.05
2023-08-20T06:40:15.907Z,3.22
2023-08-20T06:42:44.991Z,3.67
2023-08-20T06:45:14.064Z,3.35
2023-08-20T06:47:43.174Z,3.97
2023-08-20T06:50:13.943Z,4.35
2023-08-20T06:52:43.091Z,5.13
2023-08-20T06:55:12.331Z,4.70
2023-08-20T06:57:41.412Z,5.10
2023-08-20T07:00:10.968Z,5.70
2023-08-20T07:02:40.075Z,5.45
2023-08-20T07:05:10.918Z,5.82
2023-08-20T07:07:41.453Z,6.85
2023-08-20T07:10:11.582Z,6.80
2023-08-20T07:12:40.750Z,6.13
2023-08-20T07:15:10.829Z,7.80
2023-08-20T07:17:40.637Z,6.85
2023-08-20T07:20:10.524Z,6.65
2023-08-20T07:22:40.946Z,6.68
2023-08-20T07:25:10.320Z,6.07
2023-08-20T07:27:39.667Z,5.93
2023-08-20T07:30:10.134Z,6.75
2023-08-20T07:32:39.214Z,6.45
2023-08-20T07:35:12.055Z,6.10
2023-08-20T07:37:43.457Z,5.80
2023-08-20T07:40:16.501Z,6.65
2023-08-20T07:42:46.014Z,5.10
2023-08-20T07:45:15.280Z,5.82
2023-08-20T07:47:44.414Z,5.35
2023-08-20T07:50:13.482Z,5.55
2023-08-20T07:52:43.863Z,5.22
2023-08-20T07:55:12.925Z,5.00
2023-08-20T07:57:42.019Z,5.00
2023-08-20T08:00:12.544Z,4.90
2023-08-20T08:02:41.585Z,5.00
2023-08-20T08:05:11.137Z,4.75
2023-08-20T08:07:40.179Z,3.15
2023-08-20T08:10:11.296Z,3.35
2023-08-20T08:12:40.376Z,2.33
2023-08-20T08:15:09.702Z,2.03
2023-08-20T08:17:39.042Z,1.90
2023-08-20T08:20:09.211Z,1.92
2023-08-20T08:22:38.325Z,1.40
2023-08-20T08:25:07.691Z,1.60
2023-08-20T08:27:47.192Z,1.80
2023-08-20T08:30:27.317Z,1.20
2023-08-20T08:32:56.451Z,1.20
2023-08-20T08:35:25.636Z,1.20
2023-08-20T08:37:54.741Z,0.90
2023-08-20T08:40:24.966Z,1.40
2023-08-20T08:42:55.993Z,1.23
2023-08-20T08:45:25.575Z,0.80
2023-08-20T08:47:56.693Z,1.70
2023-08-20T08:50:26.363Z,1.27
2023-08-20T08:52:56.999Z,1.15
2023-08-20T08:55:26.445Z,1.10
2023-08-20T08:57:57.219Z,1.27
2023-08-20T09:00:26.433Z,1.13
2023-08-20T09:02:55.534Z,1.55
2023-08-20T09:05:24.714Z,1.55
2023-08-20T09:07:58.972Z,2.03
2023-08-20T09:10:30.772Z,1.63
2023-08-20T09:13:01.226Z,4.57
2023-08-20T09:15:36.532Z,2.05
2023-08-20T09:18:06.319Z,2.03
2023-08-20T09:20:38.906Z,1.60
2023-08-20T09:23:14.709Z,1.65
2023-08-20T09:25:44.903Z,1.60
2023-08-20T09:28:16.042Z,1.50
2023-08-20T09:30:58.300Z,1.80
2023-08-20T09:33:27.741Z,1.70
2023-08-20T09:35:57.175Z,1.40
2023-08-20T09:38:26.844Z,1.60
2023-08-20T09:40:57.476Z,1.42
2023-08-20T09:43:31.925Z,1.42
2023-08-20T09:46:04.413Z,1.13
2023-08-20T09:48:37.222Z,1.40
2023-08-20T09:51:12.381Z,1.17
2023-08-20T09:53:47.498Z,1.48
2023-08-20T09:56:24.096Z,1.30
2023-08-20T09:58:55.846Z,1.70
2023-08-20T10:01:25.618Z,1.48
2023-08-20T10:03:55.100Z,1.02
2023-08-20T10:06:25.434Z,1.40
2023-08-20T10:08:55.996Z,1.10
2023-08-20T10:11:25.068Z,1.20
2023-08-20T10:13:56.707Z,1.40
2023-08-20T10:16:29.407Z,1.48
2023-08-20T10:19:03.594Z,1.17
2023-08-20T10:21:32.756Z,1.20
2023-08-20T10:24:06.357Z,1.08
2023-08-20T10:26:36.979Z,1.52
2023-08-20T10:29:38.529Z,1.00
2023-08-20T10:32:10.895Z,1.08
2023-08-20T10:34:41.737Z,1.30
2023-08-20T10:37:15.285Z,1.42
2023-08-20T10:39:44.747Z,1.15
2023-08-20T10:42:28.639Z,1.17
2023-08-20T10:45:05.669Z,1.48
2023-08-20T10:47:39.344Z,1.10
2023-08-20T10:50:12.509Z,1.00
2023-08-20T10:52:42.315Z,1.10
2023-08-20T10:55:11.534Z,1.30
2023-08-20T10:57:40.611Z,1.15
2023-08-20T11:00:17.577Z,1.48
2023-08-20T11:02:46.785Z,1.10
2023-08-20T11:05:20.121Z,1.20
2023-08-20T11:07:49.969Z,0.95
2023-08-20T11:10:20.031Z,1.08
2023-08-20T11:12:49.401Z,1.30
2023-08-20T11:15:21.923Z,1.40
2023-08-20T11:17:51.801Z,1.20
2023-08-20T11:20:22.927Z,1.20
2023-08-20T11:22:52.421Z,1.02
2023-08-20T11:25:22.161Z,1.02
2023-08-20T11:27:52.844Z,1.27
2023-08-20T11:30:24.694Z,1.10
2023-08-20T11:32:54.674Z,1.30
2023-08-20T11:35:24.698Z,1.00
2023-08-20T11:37:54.683Z,0.63
2023-08-20T11:40:24.087Z,1.30
2023-08-20T11:42:53.228Z,1.10
2023-08-20T11:45:23.699Z,1.02
2023-08-20T11:47:59.626Z,1.45
2023-08-20T11:50:28.811Z,1.25
2023-08-20T11:53:02.127Z,1.17
2023-08-20T11:55:32.841Z,1.00
2023-08-20T11:58:01.882Z,1.33
2023-08-20T12:00:33.883Z,1.15
2023-08-20T12:03:05.180Z,1.10
2023-08-20T12:05:34.339Z,1.00
2023-08-20T12:08:05.341Z,0.98
2023-08-20T12:10:35.992Z,1.08
2023-08-20T12:13:05.481Z,1.10
2023-08-20T12:15:35.978Z,1.20
2023-08-20T12:18:06.828Z,0.98
2023-08-20T12:20:37.596Z,1.10
2023-08-20T12:23:08.302Z,1.00
2023-08-20T12:25:38.451Z,1.00
2023-08-20T12:28:08.828Z,1.08
2023-08-20T12:30:40.343Z,1.00
2023-08-20T12:33:09.489Z,1.25
2023-08-20T12:35:38.714Z,0.93
2023-08-20T12:38:08.774Z,0.95
2023-08-20T12:40:37.893Z,1.10
2023-08-20T12:43:07.098Z,1.17
2023-08-20T12:45:36.154Z,1.27
2023-08-20T12:48:08.322Z,0.90
2023-08-20T12:50:37.433Z,0.98
2023-08-20T12:53:06.704Z,1.52
2023-08-20T12:55:35.852Z,1.20
2023-08-20T12:58:05.088Z,1.00
2023-08-20T13:00:34.124Z,1.15
2023-08-20T13:03:05.473Z,1.02
2023-08-20T13:05:35.436Z,1.20
2023-08-20T13:08:05.049Z,1.13
2023-08-20T13:10:34.786Z,1.30
2023-08-20T13:13:05.023Z,1.30
2023-08-20T13:15:35.604Z,1.00
2023-08-20T13:18:09.833Z,1.15
2023-08-20T13:20:39.052Z,1.20
2023-08-20T13:23:08.215Z,1.20
2023-08-20T13:25:37.417Z,1.33
2023-08-20T13:28:06.900Z,1.10
2023-08-20T13:30:36.028Z,1.23
2023-08-20T13:33:06.975Z,0.90
2023-08-20T13:35:36.361Z,1.13
2023-08-20T13:38:06.514Z,0.80
2023-08-20T13:40:35.655Z,0.88
2023-08-20T13:43:04.824Z,1.05
2023-08-20T13:45:34.398Z,0.85
2023-08-20T13:48:03.592Z,0.93
2023-08-20T13:50:34.203Z,1.23
2023-08-20T13:53:03.713Z,0.70
2023-08-20T13:55:32.883Z,0.93
2023-08-20T13:58:01.988Z,0.90
2023-08-20T14:00:31.091Z,0.73
2023-08-20T14:03:00.594Z,0.90
2023-08-20T14:05:30.179Z,0.98
2023-08-20T14:08:00.612Z,0.90
2023-08-20T14:10:29.648Z,1.25
2023-08-20T14:12:58.753Z,0.80
2023-08-20T14:15:27.999Z,0.98
2023-08-20T14:17:57.156Z,0.75
2023-08-20T14:20:26.327Z,0.98
2023-08-20T14:22:55.516Z,1.00
2023-08-20T14:25:26.104Z,0.60
2023-08-20T14:27:55.167Z,0.60
2023-08-20T14:30:24.226Z,0.80
2023-08-20T14:32:53.953Z,1.23
2023-08-20T14:35:23.364Z,0.80
2023-08-20T14:37:55.261Z,0.90
2023-08-20T14:40:25.971Z,0.80
2023-08-20T14:42:55.031Z,0.93
2023-08-20T14:45:24.114Z,0.70
2023-08-20T14:47:53.199Z,0.90
2023-08-20T14:50:22.276Z,0.90
2023-08-20T14:52:53.088Z,0.98
2023-08-20T14:55:22.438Z,0.95
2023-08-20T14:57:52.966Z,1.00
2023-08-20T15:00:23.990Z,0.80
2023-08-20T15:02:53.499Z,0.60
2023-08-20T15:05:23.206Z,0.88
2023-08-20T15:07:52.509Z,0.65
2023-08-20T15:10:21.870Z,0.70
2023-08-20T15:12:52.426Z,0.77
2023-08-20T15:15:22.162Z,0.65
2023-08-20T15:17:52.719Z,0.90
2023-08-20T15:20:21.895Z,0.80
2023-08-20T15:22:50.957Z,0.50
2023-08-20T15:25:20.190Z,0.80
2023-08-20T15:27:49.272Z,0.68
2023-08-20T15:30:26.043Z,0.50
2023-08-20T15:32:55.111Z,0.80
2023-08-20T15:35:24.424Z,1.05
2023-08-20T15:37:54.530Z,0.70
2023-08-20T15:40:23.659Z,0.70
2023-08-20T15:42:52.728Z,0.70
2023-08-20T15:45:23.157Z,1.00
2023-08-20T15:47:52.453Z,0.90
2023-08-20T15:50:21.508Z,0.70
2023-08-20T15:52:51.092Z,0.90
2023-08-20T15:55:20.282Z,0.90
2023-08-20T15:57:49.615Z,0.70
2023-08-20T16:00:20.427Z,0.50
2023-08-20T16:02:50.941Z,0.52
2023-08-20T16:05:20.099Z,1.20
2023-08-20T16:07:49.267Z,0.70
2023-08-20T16:10:18.596Z,0.75
2023-08-20T16:12:47.657Z,0.52
2023-08-20T16:15:16.806Z,0.82
2023-08-20T16:17:46.075Z,0.90
2023-08-20T16:20:16.474Z,0.70
2023-08-20T16:22:46.205Z,0.80
2023-08-20T16:25:15.293Z,0.75
2023-08-20T16:27:44.682Z,0.82
2023-08-20T16:30:14.245Z,0.70
2023-08-20T16:32:43.369Z,0.60
2023-08-20T16:35:12.585Z,0.75
2023-08-20T16:37:43.267Z,0.77
2023-08-20T16:40:22.044Z,0.80
2023-08-20T16:42:51.171Z,0.60
2023-08-20T16:45:20.488Z,0.80
2023-08-20T16:47:49.627Z,0.70
2023-08-20T16:50:19.494Z,0.70
2023-08-20T16:52:49.966Z,1.17
2023-08-20T16:55:19.181Z,0.88
2023-08-20T16:57:49.397Z,1.00
2023-08-20T17:00:20.104Z,0.68
2023-08-20T17:02:49.543Z,0.90
2023-08-20T17:05:19.437Z,1.05
2023-08-20T17:07:49.811Z,0.70
2023-08-20T17:10:19.527Z,0.70
2023-08-20T17:12:49.167Z,0.90
2023-08-20T17:15:20.681Z,0.95
2023-08-20T17:17:49.365Z,1.30
2023-08-20T17:20:18.699Z,0.73
2023-08-20T17:22:49.153Z,1.13
2023-08-20T17:25:20.643Z,1.15
2023-08-20T17:27:50.031Z,0.88
2023-08-20T17:30:19.204Z,1.60
2023-08-20T17:32:48.313Z,1.40
2023-08-20T17:35:17.427Z,1.17
2023-08-20T17:37:47.322Z,0.85
2023-08-20T17:40:17.919Z,0.90
2023-08-20T17:42:46.997Z,1.30
2023-08-20T17:45:16.050Z,1.00
2023-08-20T17:47:45.518Z,0.70
2023-08-20T17:50:15.283Z,1.20
2023-08-20T17:52:44.340Z,1.10
2023-08-20T17:55:13.481Z,0.88
2023-08-20T17:57:44.553Z,1.05
2023-08-20T18:00:14.673Z,1.10
2023-08-20T18:02:44.116Z,1.20
2023-08-20T18:05:13.629Z,1.23
2023-08-20T18:07:42.912Z,3.55
2023-08-20T18:10:12.439Z,5.07
2023-08-20T18:12:42.978Z,2.75
2023-08-20T18:15:12.426Z,1.10
2023-08-20T18:17:41.622Z,1.38
2023-08-20T18:20:15.182Z,0.98
2023-08-20T18:22:44.329Z,0.80
2023-08-20T18:25:13.445Z,0.73
2023-08-20T18:27:45.443Z,0.98
2023-08-20T18:30:14.913Z,0.90
2023-08-20T18:32:44.168Z,1.00
2023-08-20T18:35:13.661Z,1.13
2023-08-20T18:37:42.800Z,1.02
2023-08-20T18:40:12.463Z,0.90
2023-08-20T18:42:43.315Z,0.93
2023-08-20T18:45:12.912Z,1.08
2023-08-20T18:47:42.147Z,0.95
2023-08-20T18:50:12.335Z,1.00
2023-08-20T18:52:41.545Z,2.10
2023-08-20T18:55:10.981Z,1.80
2023-08-20T18:57:40.038Z,0.90
2023-08-20T19:00:13.701Z,1.10
2023-08-20T19:02:43.006Z,0.95
2023-08-20T19:05:12.970Z,1.13
2023-08-20T19:07:44.013Z,1.17
2023-08-20T19:10:13.088Z,0.82
2023-08-20T19:12:42.311Z,0.90
2023-08-20T19:15:13.081Z,1.08
2023-08-20T19:17:42.398Z,1.20
2023-08-20T19:20:12.080Z,1.10
2023-08-20T19:22:42.271Z,1.17
2023-08-20T19:25:11.775Z,1.40
2023-08-20T19:27:41.022Z,1.40
2023-08-20T19:30:12.781Z,1.23
2023-08-20T19:32:41.979Z,1.33
2023-08-20T19:35:15.524Z,0.95
2023-08-20T19:37:49.528Z,1.20
2023-08-20T19:40:18.609Z,0.98
2023-08-20T19:42:47.668Z,1.13
2023-08-20T19:45:18.374Z,1.17
2023-08-20T19:47:47.484Z,0.95
2023-08-20T19:50:16.621Z,1.13
2023-08-20T19:52:45.690Z,1.17
2023-08-20T19:55:14.916Z,1.10
2023-08-20T19:57:44.806Z,1.15
2023-08-20T20:00:16.467Z,1.23
2023-08-20T20:02:53.211Z,1.35
2023-08-20T20:05:23.356Z,1.20
2023-08-20T20:07:52.504Z,1.25
2023-08-20T20:10:21.742Z,1.70
2023-08-20T20:12:50.833Z,1.40
2023-08-20T20:15:20.187Z,1.23
2023-08-20T20:17:51.097Z,1.10
2023-08-20T20:20:22.886Z,1.52
2023-08-20T20:22:52.026Z,1.38
2023-08-20T20:25:23.661Z,1.30
2023-08-20T20:27:53.801Z,1.40
2023-08-20T20:30:22.969Z,1.70
2023-08-20T20:32:53.422Z,1.10
2023-08-20T20:35:22.524Z,1.70
2023-08-20T20:37:51.580Z,2.30
2023-08-20T20:40:20.938Z,2.85
2023-08-20T20:42:49.986Z,3.35
2023-08-20T20:45:19.301Z,2.50
2023-08-20T20:47:48.472Z,2.40
2023-08-20T20:50:19.462Z,2.15
2023-08-20T20:52:48.528Z,1.70
2023-08-20T20:55:18.002Z,2.40
2023-08-20T20:57:47.284Z,2.88
2023-08-20T21:00:17.648Z,2.65
2023-08-20T21:02:46.985Z,3.00
2023-08-20T21:05:16.143Z,3.00
2023-08-20T21:07:46.590Z,2.67
2023-08-20T21:10:15.727Z,1.98
2023-08-20T21:12:44.818Z,1.55
2023-08-20T21:15:13.911Z,1.90
2023-08-20T21:17:43.019Z,2.35
2023-08-20T21:20:12.660Z,1.90
2023-08-20T21:22:42.032Z,1.80
2023-08-20T21:25:12.539Z,2.25
2023-08-20T21:27:41.568Z,2.10
2023-08-20T21:30:12.954Z,2.03
2023-08-20T21:32:43.484Z,2.38
2023-08-20T21:35:12.654Z,1.65
2023-08-20T21:37:41.945Z,1.80
2023-08-20T21:40:13.802Z,2.00
2023-08-20T21:42:42.874Z,1.92
2023-08-20T21:45:11.968Z,1.90
2023-08-20T21:47:47.814Z,1.65
2023-08-20T21:50:17.522Z,1.55
2023-08-20T21:52:46.767Z,2.20
2023-08-20T21:55:17.474Z,1.90
2023-08-20T21:57:46.872Z,2.35
2023-08-20T22:00:16.792Z,2.38
2023-08-20T22:02:47.228Z,2.60
2023-08-20T22:05:17.534Z,2.92
2023-08-20T22:07:48.216Z,2.38
2023-08-20T22:10:20.368Z,2.45
2023-08-20T22:12:50.013Z,2.83
2023-08-20T22:15:20.544Z,2.35
2023-08-20T22:17:49.907Z,2.17
2023-08-20T22:20:19.373Z,2.10
2023-08-20T22:22:48.558Z,2.30
2023-08-20T22:25:19.074Z,2.00
2023-08-20T22:27:48.270Z,2.22
2023-08-20T22:30:17.961Z,2.63
2023-08-20T22:32:47.216Z,2.00
2023-08-20T22:35:16.780Z,1.83
2023-08-20T22:38:03.846Z,1.80
2023-08-20T22:40:34.692Z,1.80
2023-08-20T22:43:04.143Z,1.40
2023-08-20T22:45:33.441Z,1.33
2023-08-20T22:48:03.782Z,1.90
2023-08-20T22:50:33.929Z,2.35
2023-08-20T22:53:04.331Z,1.48
2023-08-20T22:55:34.759Z,1.30
2023-08-20T22:58:04.461Z,1.50
2023-08-20T23:00:33.770Z,1.75
2023-08-20T23:03:02.826Z,1.40
2023-08-20T23:05:31.927Z,1.80
2023-08-20T23:08:00.993Z,1.80
2023-08-20T23:10:30.137Z,2.38
2023-08-20T23:13:00.627Z,1.90
2023-08-20T23:15:29.687Z,2.30
2023-08-20T23:17:58.825Z,2.17
2023-08-20T23:20:28.015Z,2.15
2023-08-20T23:22:57.393Z,2.05
2023-08-20T23:25:26.453Z,1.88
2023-08-20T23:27:55.545Z,2.33
2023-08-20T23:30:25.987Z,1.67
2023-08-20T23:32:55.349Z,1.90
2023-08-20T23:35:24.396Z,2.80
2023-08-20T23:37:53.449Z,1.98
2023-08-20T23:40:22.526Z,2.30
2023-08-20T23:42:51.722Z,1.98
2023-08-20T23:45:21.836Z,2.28
2023-08-20T23:47:52.360Z,2.05
2023-08-20T23:50:21.586Z,2.40
2023-08-20T23:52:50.616Z,2.40
2023-08-20T23:55:19.921Z,2.30
2023-08-20T23:57:49.006Z,2.10
